createdAt,value
2023-02-22T00:01:35.657Z,1.33
2023-02-22T00:03:39.219Z,1.13
2023-02-22T00:05:47.236Z,1.35
2023-02-22T00:07:51.168Z,1.48
2023-02-22T00:09:54.492Z,1.30
2023-02-22T00:11:58.786Z,1.70
2023-02-22T00:14:02.613Z,1.58
2023-02-22T00:16:06.768Z,1.30
2023-02-22T00:18:12.298Z,1.25
2023-02-22T00:20:19.636Z,1.60
2023-02-22T00:22:24.856Z,1.08
2023-02-22T00:24:29.655Z,1.40
2023-02-22T00:26:35.138Z,1.10
2023-02-22T00:28:38.846Z,1.90
2023-02-22T00:30:43.882Z,1.50
2023-02-22T00:32:48.095Z,1.80
2023-02-22T00:34:53.908Z,1.58
2023-02-22T00:37:03.047Z,1.98
2023-02-22T00:39:09.519Z,2.05
2023-02-22T00:41:13.760Z,1.90
2023-02-22T00:43:17.356Z,1.80
2023-02-22T00:45:24.124Z,1.45
2023-02-22T00:47:27.670Z,2.30
2023-02-22T00:49:31.480Z,2.40
2023-02-22T00:51:35.281Z,1.60
2023-02-22T00:53:38.568Z,1.67
2023-02-22T00:55:43.419Z,1.75
2023-02-22T00:57:46.813Z,2.22
2023-02-22T00:59:50.320Z,2.92
2023-02-22T01:01:53.832Z,2.22
2023-02-22T01:03:57.294Z,2.58
2023-02-22T01:06:00.895Z,2.85
2023-02-22T01:08:06.653Z,2.25
2023-02-22T01:10:11.544Z,2.13
2023-02-22T01:12:16.264Z,2.05
2023-02-22T01:14:21.219Z,2.30
2023-02-22T01:16:24.843Z,2.72
2023-02-22T01:18:28.696Z,2.60
2023-02-22T01:20:32.335Z,2.05
2023-02-22T01:22:35.845Z,2.70
2023-02-22T01:24:39.248Z,3.33
2023-02-22T01:26:42.794Z,2.63
2023-02-22T01:28:47.575Z,2.83
2023-02-22T01:30:51.750Z,3.50
2023-02-22T01:32:55.429Z,3.45
2023-02-22T01:34:58.923Z,3.28
2023-02-22T01:37:02.785Z,3.50
2023-02-22T01:39:06.099Z,4.47
2023-02-22T01:41:10.000Z,3.58
2023-02-22T01:43:22.430Z,3.10
2023-02-22T01:46:00.124Z,3.40
2023-02-22T01:48:08.841Z,3.58
2023-02-22T01:50:12.337Z,3.80
2023-02-22T01:52:20.059Z,3.08
2023-02-22T01:54:27.091Z,2.97
2023-02-22T01:56:33.764Z,3.33
2023-02-22T01:58:39.973Z,2.95
2023-02-22T02:00:44.810Z,3.50
2023-02-22T02:02:54.388Z,3.55
2023-02-22T02:04:59.673Z,3.40
2023-02-22T02:07:07.226Z,3.15
2023-02-22T02:09:15.649Z,4.38
2023-02-22T02:11:22.497Z,3.75
2023-02-22T02:13:27.217Z,3.90
2023-02-22T02:15:33.209Z,4.38
2023-02-22T02:17:37.301Z,3.40
2023-02-22T02:19:49.626Z,3.40
2023-02-22T02:22:14.687Z,3.65
2023-02-22T02:24:51.378Z,3.92
2023-02-22T02:27:18.014Z,3.30
2023-02-22T02:29:57.632Z,3.45
2023-02-22T02:32:36.723Z,3.55
2023-02-22T02:34:47.964Z,3.20
2023-02-22T02:37:00.553Z,3.17
2023-02-22T02:39:14.825Z,4.00
2023-02-22T02:41:22.286Z,3.28
2023-02-22T02:43:32.845Z,1.95
2023-02-22T02:45:42.607Z,2.58
2023-02-22T02:47:53.560Z,3.03
2023-02-22T02:50:02.164Z,3.30
2023-02-22T02:52:07.193Z,3.35
2023-02-22T02:54:14.991Z,3.97
2023-02-22T02:56:18.306Z,3.88
2023-02-22T02:58:24.130Z,2.65
2023-02-22T03:00:39.309Z,3.50
2023-02-22T03:02:55.593Z,3.17
2023-02-22T03:05:19.621Z,3.13
2023-02-22T03:07:35.519Z,2.88
2023-02-22T03:09:53.180Z,2.33
2023-02-22T03:12:09.268Z,4.05
2023-02-22T03:14:18.201Z,3.65
2023-02-22T03:16:30.092Z,3.13
2023-02-22T03:18:43.012Z,3.50
2023-02-22T03:20:51.718Z,3.55
2023-02-22T03:23:00.354Z,3.63
2023-02-22T03:25:09.052Z,3.35
2023-02-22T03:27:17.458Z,3.45
2023-02-22T03:29:23.513Z,3.65
2023-02-22T03:31:32.274Z,3.20
2023-02-22T03:33:42.201Z,3.50
2023-02-22T03:35:51.024Z,4.68
2023-02-22T03:37:57.977Z,3.60
2023-02-22T03:40:07.311Z,4.43
2023-02-22T03:42:14.077Z,4.05
2023-02-22T03:44:21.567Z,4.65
2023-02-22T03:46:25.581Z,4.50
2023-02-22T03:48:40.977Z,3.30
2023-02-22T03:50:46.181Z,3.65
2023-02-22T03:52:49.921Z,4.07
2023-02-22T03:54:55.009Z,3.55
2023-02-22T03:57:00.764Z,3.15
2023-02-22T03:59:05.541Z,2.83
2023-02-22T04:01:09.190Z,3.58
2023-02-22T04:03:13.134Z,3.33
2023-02-22T04:05:17.312Z,3.20
2023-02-22T04:07:25.709Z,2.97
2023-02-22T04:09:29.049Z,2.95
2023-02-22T04:11:32.698Z,3.03
2023-02-22T04:13:36.319Z,2.72
2023-02-22T04:15:39.888Z,3.50
2023-02-22T04:17:43.700Z,3.40
2023-02-22T04:19:48.320Z,3.28
2023-02-22T04:21:52.022Z,3.05
2023-02-22T04:23:56.859Z,3.15
2023-02-22T04:26:00.268Z,3.05
2023-02-22T04:28:03.831Z,2.83
2023-02-22T04:30:07.736Z,2.83
2023-02-22T04:32:11.384Z,3.20
2023-02-22T04:34:15.046Z,2.67
2023-02-22T04:36:19.757Z,3.00
2023-02-22T04:38:23.353Z,3.28
2023-02-22T04:40:28.178Z,2.03
2023-02-22T04:42:31.588Z,2.60
2023-02-22T04:44:34.990Z,2.42
2023-02-22T04:46:38.485Z,2.38
2023-02-22T04:48:42.067Z,2.40
2023-02-22T04:50:45.451Z,2.97
2023-02-22T04:52:48.758Z,3.22
2023-02-22T04:54:52.538Z,2.60
2023-02-22T04:56:57.897Z,2.10
2023-02-22T04:59:01.372Z,2.50
2023-02-22T05:01:05.341Z,2.60
2023-02-22T05:03:09.017Z,3.22
2023-02-22T05:05:12.571Z,2.88
2023-02-22T05:07:16.195Z,3.30
2023-02-22T05:09:19.665Z,2.50
2023-02-22T05:11:23.366Z,3.38
2023-02-22T05:13:28.495Z,3.05
2023-02-22T05:15:31.913Z,3.05
2023-02-22T05:17:35.598Z,3.28
2023-02-22T05:19:38.915Z,4.22
2023-02-22T05:21:42.477Z,2.85
2023-02-22T05:23:45.965Z,2.83
2023-02-22T05:25:49.567Z,2.42
2023-02-22T05:27:54.123Z,2.58
2023-02-22T05:29:59.641Z,2.75
2023-02-22T05:32:04.407Z,2.63
2023-02-22T05:34:07.673Z,2.72
2023-02-22T05:36:11.572Z,2.92
2023-02-22T05:38:16.272Z,3.13
2023-02-22T05:40:21.282Z,3.70
2023-02-22T05:42:24.799Z,3.60
2023-02-22T05:44:28.332Z,3.90
2023-02-22T05:46:33.170Z,3.78
2023-02-22T05:48:36.988Z,3.58
2023-02-22T05:50:40.751Z,3.28
2023-02-22T05:52:44.191Z,2.78
2023-02-22T05:54:47.551Z,3.53
2023-02-22T05:56:50.897Z,3.25
2023-02-22T05:58:54.305Z,2.97
2023-02-22T06:00:58.090Z,3.33
2023-02-22T06:03:04.970Z,3.25
2023-02-22T06:05:09.629Z,4.00
2023-02-22T06:07:13.796Z,3.28
2023-02-22T06:09:17.085Z,3.60
2023-02-22T06:11:20.784Z,2.72
2023-02-22T06:13:24.189Z,3.28
2023-02-22T06:15:28.804Z,3.25
2023-02-22T06:17:32.262Z,3.10
2023-02-22T06:19:37.223Z,2.33
2023-02-22T06:21:42.077Z,2.97
2023-02-22T06:23:45.825Z,2.97
2023-02-22T06:25:49.446Z,2.78
2023-02-22T06:27:52.939Z,2.92
2023-02-22T06:29:56.357Z,2.85
2023-02-22T06:32:00.158Z,3.45
2023-02-22T06:34:03.835Z,3.58
2023-02-22T06:36:10.706Z,3.40
2023-02-22T06:38:21.676Z,4.13
2023-02-22T06:40:29.542Z,3.65
2023-02-22T06:42:33.271Z,2.95
2023-02-22T06:44:36.667Z,3.28
2023-02-22T06:46:40.170Z,2.95
2023-02-22T06:48:43.655Z,6.20
2023-02-22T06:50:47.084Z,2.38
2023-02-22T06:52:52.290Z,2.67
2023-02-22T06:54:55.678Z,2.50
2023-02-22T06:56:58.982Z,3.00
2023-02-22T06:59:03.490Z,3.25
2023-02-22T07:01:07.984Z,5.32
2023-02-22T07:03:14.334Z,4.03
2023-02-22T07:05:20.614Z,3.72
2023-02-22T07:07:25.312Z,5.47
2023-02-22T07:09:30.235Z,2.95
2023-02-22T07:11:34.085Z,3.60
2023-02-22T07:13:37.579Z,3.50
2023-02-22T07:15:40.771Z,2.78
2023-02-22T07:17:44.185Z,2.53
2023-02-22T07:19:47.591Z,2.53
2023-02-22T07:21:51.043Z,3.15
2023-02-22T07:23:55.161Z,2.70
2023-02-22T07:26:02.028Z,3.10
2023-02-22T07:28:05.630Z,3.45
2023-02-22T07:30:13.101Z,3.13
2023-02-22T07:32:16.591Z,3.58
2023-02-22T07:34:20.063Z,3.03
2023-02-22T07:36:23.649Z,4.90
2023-02-22T07:38:26.992Z,3.83
2023-02-22T07:40:30.900Z,3.23
2023-02-22T07:42:35.625Z,2.43
2023-02-22T07:44:39.040Z,3.07
2023-02-22T07:46:42.725Z,3.10
2023-02-22T07:48:46.031Z,3.63
2023-02-22T07:50:49.615Z,3.30
2023-02-22T07:52:55.040Z,2.83
2023-02-22T07:54:58.535Z,2.97
2023-02-22T07:57:03.505Z,3.73
2023-02-22T07:59:09.419Z,3.17
2023-02-22T08:01:13.015Z,3.30
2023-02-22T08:03:18.143Z,2.30
2023-02-22T08:05:23.279Z,2.60
2023-02-22T08:07:26.615Z,4.27
2023-02-22T08:09:30.007Z,2.53
2023-02-22T08:11:33.806Z,2.50
2023-02-22T08:13:38.421Z,3.43
2023-02-22T08:15:45.020Z,3.23
2023-02-22T08:17:48.900Z,3.23
2023-02-22T08:19:52.321Z,3.50
2023-02-22T08:21:55.646Z,3.17
2023-02-22T08:23:58.970Z,3.27
2023-02-22T08:26:08.541Z,3.30
2023-02-22T08:28:14.061Z,5.00
2023-02-22T08:30:19.417Z,5.83
2023-02-22T08:32:24.910Z,6.60
2023-02-22T08:34:28.582Z,6.23
2023-02-22T08:36:33.048Z,8.40
2023-02-22T08:38:36.397Z,7.83
2023-02-22T08:40:39.705Z,6.97
2023-02-22T08:42:43.180Z,6.07
2023-02-22T08:44:46.548Z,6.57
2023-02-22T08:46:49.820Z,13.37
2023-02-22T08:48:55.551Z,9.30
2023-02-22T08:50:58.935Z,7.10
2023-02-22T08:53:05.051Z,10.77
2023-02-22T08:55:09.799Z,12.40
2023-02-22T08:57:13.285Z,13.50
2023-02-22T08:59:17.180Z,12.53
2023-02-22T09:01:32.712Z,14.37
2023-02-22T09:03:36.689Z,13.47
2023-02-22T09:05:41.828Z,11.33
2023-02-22T09:07:46.106Z,11.50
2023-02-22T09:09:49.439Z,11.93
2023-02-22T09:11:53.292Z,11.03
2023-02-22T09:13:56.647Z,9.77
2023-02-22T09:15:59.974Z,10.07
2023-02-22T09:18:04.125Z,11.90
2023-02-22T09:20:09.322Z,11.33
2023-02-22T09:22:14.049Z,10.07
2023-02-22T09:24:17.759Z,10.17
2023-02-22T09:26:23.655Z,9.20
2023-02-22T09:28:29.134Z,9.37
2023-02-22T09:30:34.719Z,9.20
2023-02-22T09:32:38.592Z,9.60
2023-02-22T09:34:45.959Z,8.70
2023-02-22T09:36:50.094Z,8.57
2023-02-22T09:38:54.802Z,9.27
2023-02-22T09:41:12.341Z,7.70
2023-02-22T09:43:43.133Z,7.80
2023-02-22T09:46:04.078Z,8.27
2023-02-22T09:48:21.197Z,8.40
2023-02-22T09:50:29.441Z,8.00
2023-02-22T09:52:37.793Z,9.13
2023-02-22T09:54:45.446Z,8.97
2023-02-22T09:56:51.294Z,7.77
2023-02-22T09:58:58.422Z,8.13
2023-02-22T10:01:17.722Z,7.50
2023-02-22T10:03:26.051Z,6.50
2023-02-22T10:05:34.797Z,7.13
2023-02-22T10:07:44.921Z,7.70
2023-02-22T10:09:51.069Z,7.57
2023-02-22T10:12:02.422Z,7.10
2023-02-22T10:14:19.561Z,7.23
2023-02-22T10:16:29.389Z,8.57
2023-02-22T10:18:57.628Z,6.97
2023-02-22T10:21:10.415Z,7.00
2023-02-22T10:23:22.774Z,7.20
2023-02-22T10:25:29.920Z,7.30
2023-02-22T10:27:40.652Z,7.30
2023-02-22T10:29:47.569Z,7.90
2023-02-22T10:31:58.240Z,6.47
2023-02-22T10:34:04.305Z,7.73
2023-02-22T10:36:16.833Z,7.30
2023-02-22T10:38:23.688Z,7.53
2023-02-22T10:40:33.351Z,7.27
2023-02-22T10:42:36.905Z,8.17
2023-02-22T10:44:42.242Z,7.50
2023-02-22T10:46:47.213Z,7.90
2023-02-22T10:48:53.652Z,6.87
2023-02-22T10:51:02.232Z,8.20
2023-02-22T10:53:06.273Z,7.97
2023-02-22T10:55:16.173Z,8.30
2023-02-22T10:57:26.980Z,8.20
2023-02-22T10:59:34.260Z,8.17
2023-02-22T11:01:40.895Z,7.63
2023-02-22T11:03:45.683Z,9.47
2023-02-22T11:05:50.409Z,8.20
2023-02-22T11:07:54.598Z,7.50
2023-02-22T11:09:59.728Z,8.13
2023-02-22T11:12:12.047Z,9.03
2023-02-22T11:14:28.740Z,8.13
2023-02-22T11:16:36.326Z,9.30
2023-02-22T11:18:40.225Z,9.23
2023-02-22T11:20:43.738Z,7.43
2023-02-22T11:22:47.215Z,9.60
2023-02-22T11:24:58.313Z,8.30
2023-02-22T11:27:07.126Z,9.67
2023-02-22T11:31:46.882Z,8.77
2023-02-22T11:36:01.079Z,9.80
2023-02-22T11:38:16.329Z,9.33
2023-02-22T11:40:23.059Z,9.87
2023-02-22T11:42:29.519Z,9.10
2023-02-22T11:44:34.367Z,10.13
2023-02-22T11:46:38.997Z,9.50
2023-02-22T11:48:55.361Z,9.57
2023-02-22T11:51:16.523Z,8.57
2023-02-22T11:53:31.067Z,10.10
2023-02-22T11:55:43.042Z,9.87
2023-02-22T11:58:00.887Z,11.47
2023-02-22T12:00:16.595Z,8.83
2023-02-22T12:02:51.825Z,9.50
2023-02-22T12:05:18.697Z,8.27
2023-02-22T12:07:32.824Z,8.03
2023-02-22T12:09:41.622Z,9.33
2023-02-22T12:11:58.389Z,8.63
2023-02-22T12:14:12.739Z,8.30
2023-02-22T12:16:25.137Z,10.20
2023-02-22T12:18:37.226Z,8.73
2023-02-22T12:20:47.721Z,9.27
2023-02-22T12:23:02.284Z,8.10
2023-02-22T12:25:19.652Z,8.97
2023-02-22T12:27:28.456Z,8.67
2023-02-22T12:29:39.383Z,9.53
2023-02-22T12:31:47.063Z,8.20
2023-02-22T12:34:01.301Z,8.47
2023-02-22T12:36:06.832Z,9.40
2023-02-22T12:38:15.755Z,10.20
2023-02-22T12:40:28.268Z,9.13
2023-02-22T12:42:38.007Z,8.43
2023-02-22T12:44:45.291Z,8.30
2023-02-22T12:46:53.382Z,7.53
2023-02-22T12:49:04.512Z,8.60
2023-02-22T12:51:20.617Z,7.93
2023-02-22T12:53:29.784Z,8.63
2023-02-22T12:55:39.676Z,8.40
2023-02-22T12:57:49.394Z,8.00
2023-02-22T12:59:57.680Z,8.80
2023-02-22T13:02:13.048Z,8.70
2023-02-22T13:04:21.068Z,8.10
2023-02-22T13:06:40.658Z,8.00
2023-02-22T13:08:54.665Z,8.27
2023-02-22T13:11:11.469Z,8.67
2023-02-22T13:13:26.325Z,7.80
2023-02-22T13:15:33.513Z,8.80
2023-02-22T13:17:43.077Z,8.07
2023-02-22T13:19:53.222Z,9.63
2023-02-22T13:22:05.523Z,8.70
2023-02-22T13:24:19.715Z,7.43
2023-02-22T13:26:27.252Z,8.57
2023-02-22T13:28:37.171Z,6.90
2023-02-22T13:30:43.264Z,8.20
2023-02-22T13:33:14.780Z,8.63
2023-02-22T13:35:35.177Z,7.90
2023-02-22T13:38:14.929Z,8.13
2023-02-22T13:40:47.188Z,7.80
2023-02-22T13:43:14.134Z,8.03
2023-02-22T13:46:00.044Z,8.30
2023-02-22T13:48:36.098Z,7.60
2023-02-22T13:51:04.556Z,7.40
2023-02-22T13:53:14.399Z,7.53
2023-02-22T13:55:21.513Z,7.67
2023-02-22T13:57:28.459Z,9.20
2023-02-22T13:59:36.265Z,7.87
2023-02-22T14:01:47.113Z,7.33
2023-02-22T14:03:50.816Z,6.93
2023-02-22T14:05:57.701Z,8.53
2023-02-22T14:08:01.220Z,7.93
2023-02-22T14:10:08.682Z,8.77
2023-02-22T14:12:15.109Z,8.90
2023-02-22T14:14:19.268Z,8.90
2023-02-22T14:16:25.234Z,8.30
2023-02-22T14:18:30.336Z,9.57
2023-02-22T14:20:36.953Z,9.73
2023-02-22T14:22:40.450Z,8.33
2023-02-22T14:24:45.936Z,8.07
2023-02-22T14:27:06.542Z,7.27
2023-02-22T14:29:21.482Z,8.60
2023-02-22T14:31:36.029Z,8.57
2023-02-22T14:34:10.467Z,8.10
2023-02-22T14:36:14.771Z,9.57
2023-02-22T14:38:21.074Z,8.63
2023-02-22T14:40:28.022Z,8.70
2023-02-22T14:42:36.499Z,8.50
2023-02-22T14:44:44.743Z,8.30
2023-02-22T14:46:50.167Z,9.33
2023-02-22T14:49:00.970Z,8.27
2023-02-22T14:51:20.619Z,8.20
2023-02-22T14:53:31.056Z,8.00
2023-02-22T14:55:39.906Z,8.37
2023-02-22T14:58:01.444Z,7.77
2023-02-22T15:00:28.968Z,8.60
2023-02-22T15:02:41.625Z,7.60
2023-02-22T15:04:52.871Z,8.43
2023-02-22T15:06:58.164Z,7.70
2023-02-22T15:09:09.950Z,8.37
2023-02-22T15:11:22.695Z,9.00
2023-02-22T15:13:33.145Z,7.93
2023-02-22T15:15:38.496Z,9.40
2023-02-22T15:17:46.251Z,8.47
2023-02-22T15:19:50.322Z,8.47
2023-02-22T15:21:56.253Z,6.80
2023-02-22T15:24:02.007Z,7.70
2023-02-22T15:26:05.592Z,7.80
2023-02-22T15:28:09.697Z,7.77
2023-02-22T15:30:27.707Z,6.77
2023-02-22T15:32:34.694Z,8.30
2023-02-22T15:34:38.224Z,8.00
2023-02-22T15:36:42.524Z,7.60
2023-02-22T15:38:50.627Z,6.20
2023-02-22T15:41:05.632Z,7.50
2023-02-22T15:43:17.349Z,7.97
2023-02-22T15:45:25.271Z,7.10
2023-02-22T15:47:32.167Z,7.30
2023-02-22T15:49:38.013Z,7.00
2023-02-22T15:51:46.496Z,5.83
2023-02-22T15:53:52.572Z,6.80
2023-02-22T15:55:59.348Z,7.30
2023-02-22T15:58:11.408Z,7.10
2023-02-22T16:00:25.361Z,7.83
2023-02-22T16:02:37.080Z,5.33
2023-02-22T16:04:42.158Z,6.33
2023-02-22T16:06:48.644Z,6.30
2023-02-22T16:08:55.670Z,7.43
2023-02-22T16:11:04.146Z,18.03
2023-02-22T16:13:31.178Z,17.90
2023-02-22T16:15:37.249Z,14.83
2023-02-22T16:17:56.002Z,10.10
2023-02-22T16:20:24.960Z,7.43
2023-02-22T16:22:33.834Z,7.60
2023-02-22T16:24:37.821Z,7.67
2023-02-22T16:26:41.576Z,15.33
2023-02-22T16:28:52.303Z,11.60
2023-02-22T16:31:00.441Z,6.73
2023-02-22T16:33:06.717Z,7.43
2023-02-22T16:35:18.062Z,8.37
2023-02-22T16:37:23.770Z,12.63
2023-02-22T16:39:29.601Z,10.70
2023-02-22T16:41:33.015Z,8.50
2023-02-22T16:43:37.480Z,7.97
2023-02-22T16:45:42.673Z,9.27
2023-02-22T16:47:48.314Z,11.93
2023-02-22T16:49:53.610Z,11.20
2023-02-22T16:52:01.669Z,8.03
2023-02-22T16:54:05.257Z,7.60
2023-02-22T16:56:13.157Z,7.83
2023-02-22T16:58:19.108Z,9.00
2023-02-22T17:00:31.339Z,8.80
2023-02-22T17:02:35.445Z,9.10
2023-02-22T17:04:40.541Z,10.27
2023-02-22T17:06:44.369Z,12.30
2023-02-22T17:08:48.817Z,16.37
2023-02-22T17:10:56.790Z,20.30
2023-02-22T17:13:07.247Z,19.90
2023-02-22T17:15:23.198Z,16.80
2023-02-22T17:17:27.357Z,15.68
2023-02-22T17:19:30.969Z,15.00
2023-02-22T17:21:35.641Z,11.35
2023-02-22T17:23:39.038Z,11.70
2023-02-22T17:25:44.059Z,12.93
2023-02-22T17:27:47.581Z,15.07
2023-02-22T17:29:50.942Z,17.42
2023-02-22T17:31:55.301Z,17.05
2023-02-22T17:34:02.188Z,16.30
2023-02-22T17:36:07.169Z,20.80
2023-02-22T17:38:11.887Z,18.48
2023-02-22T17:40:15.834Z,15.82
2023-02-22T17:42:19.290Z,13.30
2023-02-22T17:44:22.832Z,13.52
2023-02-22T17:46:26.929Z,13.02
2023-02-22T17:48:30.229Z,11.85
2023-02-22T17:50:33.877Z,9.30
2023-02-22T17:52:37.279Z,11.52
2023-02-22T17:54:42.202Z,10.90
2023-02-22T17:56:45.499Z,11.73
2023-02-22T17:58:53.202Z,11.35
2023-02-22T18:00:59.357Z,12.63
2023-02-22T18:03:05.264Z,13.02
2023-02-22T18:05:10.087Z,11.63
2023-02-22T18:07:14.389Z,10.93
2023-02-22T18:09:20.474Z,9.57
2023-02-22T18:11:27.274Z,10.15
2023-02-22T18:13:31.773Z,9.00
2023-02-22T18:15:35.718Z,8.10
2023-02-22T18:17:40.035Z,9.43
2023-02-22T18:19:43.597Z,10.20
2023-02-22T18:21:47.613Z,9.70
2023-02-22T18:23:51.096Z,10.60
2023-02-22T18:26:09.688Z,9.38
2023-02-22T18:28:15.829Z,10.98
2023-02-22T18:30:19.750Z,9.25
2023-02-22T18:32:23.468Z,11.10
2023-02-22T18:34:28.225Z,10.75
2023-02-22T18:36:32.520Z,10.65
2023-02-22T18:38:36.116Z,9.25
2023-02-22T18:40:39.423Z,10.27
2023-02-22T18:42:42.924Z,11.15
2023-02-22T18:44:47.769Z,11.05
2023-02-22T18:46:51.337Z,10.15
2023-02-22T18:48:56.759Z,10.20
2023-02-22T18:51:01.840Z,8.63
2023-02-22T18:53:05.568Z,10.98
2023-02-22T18:55:09.116Z,16.85
2023-02-22T18:57:13.346Z,18.17
2023-02-22T18:59:16.613Z,16.48
2023-02-22T19:01:22.153Z,16.67
2023-02-22T19:03:26.700Z,13.93
2023-02-22T19:05:33.056Z,13.25
2023-02-22T19:07:36.947Z,12.00
2023-02-22T19:09:40.672Z,12.45
2023-02-22T19:11:46.626Z,12.38
2023-02-22T19:13:51.507Z,12.52
2023-02-22T19:15:55.160Z,13.30
2023-02-22T19:17:59.851Z,10.90
2023-02-22T19:20:06.155Z,12.13
2023-02-22T19:22:09.618Z,12.15
2023-02-22T19:24:13.322Z,10.90
2023-02-22T19:26:19.731Z,12.63
2023-02-22T19:28:28.089Z,10.65
2023-02-22T19:30:32.676Z,11.35
2023-02-22T19:32:36.539Z,10.55
2023-02-22T19:34:44.142Z,11.60
2023-02-22T19:36:48.038Z,13.25
2023-02-22T19:38:51.657Z,12.88
2023-02-22T19:40:56.243Z,11.10
2023-02-22T19:42:59.699Z,13.23
2023-02-22T19:45:03.250Z,11.55
2023-02-22T19:47:10.070Z,11.77
2023-02-22T19:49:13.475Z,13.00
2023-02-22T19:51:20.294Z,14.35
2023-02-22T19:53:24.030Z,16.58
2023-02-22T19:55:32.348Z,18.00
2023-02-22T19:57:36.018Z,17.30
2023-02-22T19:59:39.447Z,16.45
2023-02-22T20:01:45.193Z,16.58
2023-02-22T20:03:53.389Z,18.08
2023-02-22T20:05:59.402Z,21.23
2023-02-22T20:08:04.521Z,21.05
2023-02-22T20:10:08.629Z,20.90
2023-02-22T20:12:12.343Z,21.85
2023-02-22T20:14:18.960Z,20.10
2023-02-22T20:16:22.733Z,21.10
2023-02-22T20:18:26.001Z,26.70
2023-02-22T20:20:30.873Z,39.30
2023-02-22T20:22:34.270Z,71.57
2023-02-22T20:24:38.994Z,47.42
2023-02-22T20:26:44.335Z,59.80
2023-02-22T20:28:48.857Z,50.45
2023-02-22T20:30:52.859Z,35.88
2023-02-22T20:32:56.694Z,36.45
2023-02-22T20:35:00.111Z,32.88
2023-02-22T20:37:04.886Z,27.52
2023-02-22T20:39:13.368Z,25.58
2023-02-22T20:41:24.148Z,18.13
2023-02-22T20:43:27.346Z,14.90
2023-02-22T20:45:32.395Z,14.35
2023-02-22T20:47:36.267Z,16.30
2023-02-22T20:49:40.075Z,13.70
2023-02-22T20:51:43.854Z,11.07
2023-02-22T20:53:47.642Z,12.18
2023-02-22T20:55:51.479Z,11.73
2023-02-22T20:57:56.109Z,11.63
2023-02-22T21:00:00.589Z,12.13
2023-02-22T21:02:03.959Z,11.55
2023-02-22T21:04:10.079Z,11.40
2023-02-22T21:06:16.839Z,10.95
2023-02-22T21:08:20.353Z,10.85
2023-02-22T21:10:23.627Z,11.50
2023-02-22T21:12:27.322Z,10.15
2023-02-22T21:14:32.708Z,12.50
2023-02-22T21:16:38.323Z,11.20
2023-02-22T21:18:41.704Z,12.27
2023-02-22T21:20:48.377Z,11.18
2023-02-22T21:22:53.118Z,12.45
2023-02-22T21:24:56.796Z,11.90
2023-02-22T21:27:00.430Z,12.80
2023-02-22T21:29:05.999Z,11.15
2023-02-22T21:31:13.301Z,10.93
2023-02-22T21:33:17.351Z,10.65
2023-02-22T21:35:23.283Z,10.45
2023-02-22T21:37:26.796Z,9.85
2023-02-22T21:39:30.576Z,11.27
2023-02-22T21:41:34.081Z,10.80
2023-02-22T21:43:37.904Z,10.48
2023-02-22T21:45:41.834Z,10.27
2023-02-22T21:47:47.447Z,10.02
2023-02-22T21:49:50.818Z,9.63
2023-02-22T21:51:54.111Z,8.75
2023-02-22T21:53:57.700Z,12.10
2023-02-22T21:56:05.086Z,11.95
2023-02-22T21:58:09.569Z,10.30
2023-02-22T22:00:17.501Z,10.20
2023-02-22T22:02:22.195Z,12.40
2023-02-22T22:04:29.924Z,12.45
2023-02-22T22:06:35.978Z,11.40
2023-02-22T22:08:41.221Z,11.32
2023-02-22T22:10:44.906Z,11.20
2023-02-22T22:12:50.573Z,10.80
2023-02-22T22:14:54.529Z,10.77
2023-02-22T22:17:01.131Z,10.52
2023-02-22T22:19:04.610Z,10.90
2023-02-22T22:21:12.256Z,11.18
2023-02-22T22:23:16.008Z,10.10
2023-02-22T22:25:19.708Z,11.77
2023-02-22T22:27:23.430Z,9.75
2023-02-22T22:29:28.618Z,10.80
2023-02-22T22:31:33.030Z,11.65
2023-02-22T22:33:38.191Z,10.95
2023-02-22T22:35:41.950Z,11.73
2023-02-22T22:37:51.147Z,11.32
2023-02-22T22:39:54.613Z,10.80
2023-02-22T22:41:58.227Z,9.70
2023-02-22T22:44:01.913Z,11.60
2023-02-22T22:46:08.219Z,11.32
2023-02-22T22:48:14.982Z,10.60
2023-02-22T22:50:19.876Z,10.73
2023-02-22T22:52:24.394Z,9.90
2023-02-22T22:54:29.129Z,11.82
2023-02-22T22:56:35.365Z,11.05
2023-02-22T22:58:39.232Z,11.90
2023-02-22T23:00:42.589Z,12.65
2023-02-22T23:02:48.740Z,13.23
2023-02-22T23:04:52.959Z,11.07
2023-02-22T23:06:57.053Z,12.35
2023-02-22T23:09:02.117Z,12.50
2023-02-22T23:11:09.870Z,11.75
2023-02-22T23:13:15.757Z,13.40
2023-02-22T23:15:19.254Z,12.98
2023-02-22T23:17:31.522Z,14.55
2023-02-22T23:19:36.913Z,13.90
2023-02-22T23:21:43.326Z,12.43
2023-02-22T23:23:51.421Z,12.38
2023-02-22T23:26:03.424Z,14.02
2023-02-22T23:28:14.858Z,16.33
2023-02-22T23:30:19.261Z,14.88
2023-02-22T23:32:22.876Z,14.05
2023-02-22T23:34:27.294Z,14.30
2023-02-22T23:36:30.622Z,13.90
2023-02-22T23:38:34.953Z,11.70
2023-02-22T23:40:39.014Z,9.88
2023-02-22T23:42:42.558Z,10.52
2023-02-22T23:44:49.105Z,10.05
2023-02-22T23:46:55.748Z,10.40
2023-02-22T23:49:01.803Z,10.23
2023-02-22T23:51:09.957Z,11.23
2023-02-22T23:53:15.263Z,12.05
2023-02-22T23:55:20.814Z,9.45
2023-02-22T23:57:26.119Z,10.27
2023-02-22T23:59:30.726Z,10.20
